KFRH/FRH METAR and TAF weather

Enter ICAO airport designator
Station Type Date Time Source
KFRH METAR 2019/04/24 22:35 UTC NOAA

KFRH 242235Z AUTO 36006KT 5SM SCT043 OVC055 17/16 A2988 RMK AO1


Station Type Date Time Source
KFRH Decoded METAR 2019/04/24 22:35 UTC NOAA

Station name not available
Apr 24, 2019 - 06:35 PM EDT / 2019.04.24 2235 UTC
Wind: from the N (360 degrees) at 7 MPH (6 KT):0
Visibility: 5 mile(s):0
Sky conditions: overcast
Temperature: 62 F (17 C)
Dew Point: 60 F (16 C)
Relative Humidity: 93%
Pressure (altimeter): 29.88 in. Hg (1011 hPa)
ob: KFRH 242235Z AUTO 36006KT 5SM SCT043 OVC055 17/16 A2988 RMK AO1
cycle: 22

Station Type Date Time Source
KFRH TAF UTC NOAA

Error!

Example: see airport list